Time;durP1;ratioP1;P1;durP2;ratioP2;P2;SDS_P1;SDS_P2;PMS_P1;PMS_P2;Temp;Humidity;BMP_temperature;BMP_pressure;BME280_temperature;BME280_humidity;BME280_pressure;Samples;Min_cycle;Max_cycle;Signal;HPM_P1;HPM_P2
2022/05/29 00:00:40;;;;;;;8.63;3.78;;;;;;;10.58;58.74;99741.69;4998088;28;20048;-65
2022/05/29 00:03:06;;;;;;;7.65;3.00;;;;;;;10.53;59.10;99737.53;5002480;28;20061;-65
2022/05/29 00:05:31;;;;;;;7.38;2.95;;;;;;;10.50;59.17;99739.44;5005010;28;20133;-65
2022/05/29 00:07:57;;;;;;;4.75;2.83;;;;;;;10.40;59.79;99739.03;5004631;28;20136;-66
2022/05/29 00:10:22;;;;;;;12.13;2.80;;;;;;;10.37;59.99;99735.72;5005281;28;20041;-65
2022/05/29 00:12:48;;;;;;;9.30;3.60;;;;;;;10.39;59.63;99742.63;5005224;28;20048;-64
2022/05/29 00:15:13;;;;;;;10.98;3.33;;;;;;;10.41;59.90;99731.97;5005375;28;20128;-66
2022/05/29 00:17:39;;;;;;;6.97;2.63;;;;;;;10.36;59.81;99732.25;5004608;28;20061;-67
2022/05/29 00:20:05;;;;;;;8.00;2.63;;;;;;;10.29;60.21;99731.69;5005394;28;20141;-67
2022/05/29 00:22:32;;;;;;;8.45;2.45;;;;;;;10.19;60.68;99729.50;5004814;28;20037;-66
2022/05/29 00:24:57;;;;;;;7.50;2.50;;;;;;;10.20;60.32;99733.88;5005571;28;20045;-66
2022/05/29 00:27:23;;;;;;;3.78;2.40;;;;;;;10.14;60.77;99728.88;5004418;28;20494;-66
2022/05/29 00:29:49;;;;;;;13.15;3.15;;;;;;;10.10;60.71;99731.69;5005347;28;20041;-65
2022/05/29 00:32:14;;;;;;;6.18;2.85;;;;;;;10.06;60.94;99727.47;5005606;28;20037;-65
2022/05/29 00:34:40;;;;;;;10.48;3.40;;;;;;;10.04;60.91;99716.19;5005206;28;20042;-65
2022/05/29 00:37:07;;;;;;;18.80;3.50;;;;;;;10.00;61.01;99719.03;5004810;28;20045;-66
2022/05/29 00:39:34;;;;;;;10.68;3.08;;;;;;;10.01;60.88;99721.56;5005320;28;20100;-66
2022/05/29 00:42:03;;;;;;;9.63;2.80;;;;;;;9.96;60.96;99709.56;5005165;28;20034;-66
2022/05/29 00:44:30;;;;;;;9.70;2.92;;;;;;;10.00;61.08;99719.03;4990852;28;20200;-65
2022/05/29 00:47:14;;;;;;;5.45;3.28;;;;;;;9.98;61.66;99716.47;4984666;28;20383;-66
2022/05/29 00:49:41;;;;;;;5.45;2.28;;;;;;;10.02;60.94;99717.19;4988159;28;20037;-64
2022/05/29 00:52:16;;;;;;;10.88;3.13;;;;;;;10.03;61.19;99708.34;4986696;28;20042;-64
2022/05/29 00:54:49;;;;;;;6.03;3.25;;;;;;;10.04;61.17;99707.41;4994704;28;20429;-66
2022/05/29 00:57:17;;;;;;;6.20;2.97;;;;;;;10.07;60.66;99704.66;5004480;28;20041;-65
2022/05/29 00:59:43;;;;;;;9.35;3.17;;;;;;;10.12;60.85;99702.63;5005141;28;20092;-64
2022/05/29 01:02:09;;;;;;;5.82;2.10;;;;;;;10.12;60.66;99701.78;5018154;28;20037;-65
2022/05/29 01:04:38;;;;;;;8.48;2.42;;;;;;;10.10;60.86;99697.44;5005731;28;20045;-66
2022/05/29 01:07:08;;;;;;;10.40;3.40;;;;;;;10.08;61.07;99699.28;5006050;28;20045;-65
2022/05/29 01:09:36;;;;;;;11.90;2.67;;;;;;;10.05;61.19;99698.59;5008887;28;20095;-65
2022/05/29 01:12:29;;;;;;;13.68;3.20;;;;;;;10.04;61.33;99696.88;5008527;28;20409;-65
2022/05/29 01:15:44;;;;;;;8.90;3.08;;;;;;;9.96;62.25;99699.03;5008173;28;20528;-66
2022/05/29 01:18:09;;;;;;;5.90;2.47;;;;;;;9.84;62.08;99696.03;4965264;28;20046;-64
2022/05/29 01:20:53;;;;;;;13.32;3.78;;;;;;;9.76;62.90;99692.09;4966427;28;20565;-66
2022/05/29 01:23:55;;;;;;;10.23;3.25;;;;;;;9.74;63.32;99693.94;4993523;28;20042;-66
2022/05/29 01:26:42;;;;;;;7.50;2.78;;;;;;;9.71;63.23;99692.28;5007696;28;20137;-66
2022/05/29 01:29:18;;;;;;;8.82;3.88;;;;;;;9.68;63.56;99689.81;5008976;28;20033;-65
2022/05/29 01:31:53;;;;;;;13.85;3.53;;;;;;;9.66;63.15;99689.03;5008688;28;20041;-65
2022/05/29 01:34:32;;;;;;;6.90;2.63;;;;;;;9.72;63.67;99687.88;5007862;28;20049;-65
2022/05/29 01:37:15;;;;;;;11.98;4.07;;;;;;;9.78;62.93;99688.44;5007799;28;20133;-64
2022/05/29 01:39:49;;;;;;;8.02;3.08;;;;;;;9.78;63.39;99685.81;5008530;28;20037;-65
2022/05/29 01:42:21;;;;;;;5.65;2.97;;;;;;;9.73;63.71;99679.06;5008025;28;20049;-65
2022/05/29 01:45:01;;;;;;;11.82;3.25;;;;;;;9.70;63.95;99684.47;5007984;28;20038;-63
2022/05/29 01:47:37;;;;;;;4.78;2.65;;;;;;;9.66;63.63;99676.72;5005774;28;20041;-64
2022/05/29 01:50:11;;;;;;;9.77;3.70;;;;;;;9.60;63.64;99676.16;5007771;28;20057;-64
2022/05/29 01:52:52;;;;;;;7.68;3.05;;;;;;;9.57;63.22;99668.41;5008159;28;20038;-64
2022/05/29 01:55:25;;;;;;;6.18;2.80;;;;;;;9.56;63.60;99670.19;5007833;28;20066;-65
2022/05/29 01:57:58;;;;;;;7.93;2.83;;;;;;;9.55;63.60;99671.13;5006926;28;20091;-64
2022/05/29 02:00:23;;;;;;;8.70;2.25;;;;;;;9.57;63.74;99669.25;5007908;28;20125;-65
2022/05/29 02:02:55;;;;;;;7.05;2.50;;;;;;;9.61;63.63;99664.72;5007614;28;20121;-62
2022/05/29 02:05:26;;;;;;;8.30;2.83;;;;;;;9.57;63.48;99663.13;5007706;28;20080;-64
2022/05/29 02:08:00;;;;;;;12.07;3.00;;;;;;;9.52;63.66;99665.13;5006829;28;20146;-65
2022/05/29 02:10:41;;;;;;;8.50;2.90;;;;;;;9.52;64.02;99665.97;4996623;28;20070;-66
2022/05/29 02:13:19;;;;;;;12.45;3.08;;;;;;;9.51;63.67;99660.81;4988215;28;20048;-63
2022/05/29 02:15:48;;;;;;;7.22;3.92;;;;;;;9.47;63.86;99662.72;4988777;28;20038;-66
2022/05/29 02:18:25;;;;;;;9.48;3.38;;;;;;;9.44;63.88;99658.44;4994238;28;20058;-64
2022/05/29 02:20:54;;;;;;;10.45;2.95;;;;;;;9.42;64.25;99662.06;4988468;28;20065;-66
2022/05/29 02:23:35;;;;;;;9.93;3.30;;;;;;;9.36;64.51;99654.47;4989031;28;20034;-64
2022/05/29 02:26:04;;;;;;;9.07;2.38;;;;;;;9.31;64.49;99664.38;4987552;28;20130;-62
2022/05/29 02:28:40;;;;;;;4.97;2.42;;;;;;;9.28;64.83;99653.97;4987858;28;20184;-65
2022/05/29 02:31:41;;;;;;;8.75;2.67;;;;;;;9.15;65.51;99648.41;5000767;28;20129;-64
2022/05/29 02:34:17;;;;;;;6.80;3.15;;;;;;;9.02;65.88;99646.34;5007159;28;20041;-64
2022/05/29 02:36:56;;;;;;;7.82;2.90;;;;;;;8.95;66.34;99649.31;5006756;28;20045;-65
2022/05/29 02:39:33;;;;;;;10.25;3.03;;;;;;;8.88;66.66;99646.09;5007338;28;20042;-62
2022/05/29 02:42:14;;;;;;;9.05;3.20;;;;;;;8.90;67.01;99648.66;5007262;28;20539;-66
2022/05/29 02:44:53;;;;;;;11.13;2.80;;;;;;;8.94;65.99;99647.63;5007952;28;20092;-66
2022/05/29 02:47:44;;;;;;;8.98;3.33;;;;;;;8.94;66.26;99648.47;5006453;28;20038;-66
2022/05/29 02:50:12;;;;;;;10.45;2.88;;;;;;;8.94;66.75;99645.00;4988333;28;20045;-64
2022/05/29 02:52:38;;;;;;;9.27;3.05;;;;;;;8.93;66.50;99640.63;5007154;28;20193;-65
2022/05/29 02:55:03;;;;;;;11.35;3.22;;;;;;;8.84;67.02;99641.91;5007726;28;20595;-65
2022/05/29 02:57:29;;;;;;;7.97;2.50;;;;;;;8.85;67.06;99643.63;5007770;28;20038;-65
2022/05/29 03:00:03;;;;;;;10.50;3.03;;;;;;;8.81;66.98;99642.91;5007439;28;20049;-65
2022/05/29 03:02:41;;;;;;;14.20;3.75;;;;;;;8.81;66.66;99642.91;5010409;28;20389;-64
2022/05/29 03:05:13;;;;;;;4.80;3.03;;;;;;;8.82;66.77;99643.75;5009710;28;20041;-65
2022/05/29 03:08:09;;;;;;;6.47;2.58;;;;;;;8.87;67.11;99646.19;5008511;28;20708;-63
2022/05/29 03:10:39;;;;;;;7.50;2.90;;;;;;;8.90;66.49;99638.16;5005495;28;20464;-64
2022/05/29 03:13:13;;;;;;;10.27;3.22;;;;;;;8.94;66.61;99647.63;5005680;28;20493;-64
2022/05/29 03:16:02;;;;;;;6.88;2.67;;;;;;;8.97;66.49;99645.69;5006770;28;20041;-63
2022/05/29 03:18:50;;;;;;;5.88;3.00;;;;;;;8.97;66.49;99637.81;5005765;28;20038;-64
2022/05/29 03:21:36;;;;;;;4.97;2.60;;;;;;;8.99;66.64;99637.75;5007134;28;20045;-64
2022/05/29 03:24:32;;;;;;;7.00;3.08;;;;;;;9.01;66.86;99634.13;5007599;28;20084;-64
2022/05/29 03:26:57;;;;;;;9.02;3.55;;;;;;;8.99;67.24;99637.75;4996882;28;20033;-63
2022/05/29 03:29:34;;;;;;;7.68;2.50;;;;;;;9.02;67.40;99634.97;5005840;28;20048;-65
2022/05/29 03:32:01;;;;;;;4.28;2.65;;;;;;;9.04;66.89;99643.66;5009035;28;20073;-66
2022/05/29 03:34:26;;;;;;;10.45;3.80;;;;;;;9.01;67.39;99634.13;5010326;28;20046;-64
2022/05/29 03:36:52;;;;;;;6.55;2.75;;;;;;;9.01;67.31;99631.50;5010393;28;20037;-64
2022/05/29 03:39:18;;;;;;;7.85;3.08;;;;;;;9.05;67.29;99634.81;5010549;28;20046;-65
2022/05/29 03:41:49;;;;;;;11.50;2.90;;;;;;;9.05;67.38;99636.59;5010224;28;20037;-65
2022/05/29 03:44:18;;;;;;;11.35;3.70;;;;;;;9.11;67.22;99621.41;5007708;28;20041;-64
2022/05/29 03:46:44;;;;;;;7.45;4.18;;;;;;;9.17;67.56;99628.16;5007288;28;20101;-66
2022/05/29 03:49:11;;;;;;;6.05;2.72;;;;;;;9.20;67.37;99626.22;5006936;28;20100;-65
2022/05/29 03:51:37;;;;;;;12.73;3.20;;;;;;;9.25;67.19;99623.38;5008078;28;20064;-66
2022/05/29 03:54:05;;;;;;;7.97;2.85;;;;;;;9.34;67.00;99625.59;5008624;28;20132;-65
2022/05/29 03:56:31;;;;;;;15.82;3.47;;;;;;;9.36;66.49;99623.75;5007901;28;20060;-65
2022/05/29 03:58:57;;;;;;;7.53;3.42;;;;;;;9.39;66.42;99620.13;5007406;28;20034;-64
2022/05/29 04:01:22;;;;;;;9.25;3.35;;;;;;;9.43;66.19;99613.81;5007456;28;20034;-62
2022/05/29 04:03:49;;;;;;;9.73;4.40;;;;;;;9.45;66.62;99620.69;5006097;28;20041;-63
2022/05/29 04:06:14;;;;;;;12.80;3.30;;;;;;;9.48;66.13;99616.22;5004968;28;20402;-65
2022/05/29 04:14:08;;;;;;;11.40;4.97;;;;;;;9.63;66.26;99613.69;5005633;28;20135;-66
2022/05/29 04:16:33;;;;;;;8.95;4.32;;;;;;;9.64;66.28;99609.28;5005552;28;20459;-65
2022/05/29 04:18:59;;;;;;;4.60;2.88;;;;;;;9.67;65.53;99611.75;5005540;28;20463;-65
2022/05/29 04:21:25;;;;;;;8.00;3.63;;;;;;;9.70;65.83;99613.38;5005206;28;20453;-64
2022/05/29 04:23:50;;;;;;;8.93;3.10;;;;;;;9.67;65.83;99609.13;5005410;28;20041;-66
2022/05/29 04:26:17;;;;;;;8.50;2.97;;;;;;;9.66;65.95;99603.00;5004990;28;20048;-65
2022/05/29 04:28:42;;;;;;;7.53;2.85;;;;;;;9.70;65.41;99593.22;5005760;28;20034;-66
2022/05/29 04:31:08;;;;;;;5.13;2.92;;;;;;;9.67;65.61;99590.69;5005510;28;20084;-65
2022/05/29 04:33:33;;;;;;;12.18;2.92;;;;;;;9.66;66.07;99589.00;5005324;28;20061;-66
2022/05/29 04:35:59;;;;;;;10.63;3.40;;;;;;;9.69;65.90;99588.84;5004967;28;20611;-66
2022/05/29 04:38:27;;;;;;;8.23;3.42;;;;;;;9.70;66.19;99589.69;5004435;28;20042;-66
2022/05/29 04:40:54;;;;;;;17.42;5.30;;;;;;;9.71;65.71;99586.16;5005123;28;20069;-66
2022/05/29 04:43:19;;;;;;;8.93;3.10;;;;;;;9.68;65.70;99588.00;5005109;28;20038;-66
2022/05/29 04:45:47;;;;;;;9.25;3.05;;;;;;;9.73;66.47;99584.31;5005223;28;20045;-65
2022/05/29 04:48:16;;;;;;;6.97;3.60;;;;;;;9.78;65.55;99584.94;5006132;28;20037;-66
2022/05/29 04:50:41;;;;;;;9.43;3.58;;;;;;;9.81;65.74;99584.78;5003927;28;20494;-65
2022/05/29 04:53:07;;;;;;;7.82;3.33;;;;;;;9.86;65.31;99583.59;5005625;28;20046;-65
2022/05/29 04:55:32;;;;;;;9.40;3.35;;;;;;;9.91;65.27;99591.28;5004211;28;20038;-65
2022/05/29 04:57:58;;;;;;;12.35;3.40;;;;;;;9.91;65.13;99579.91;5004912;28;20044;-66
2022/05/29 05:00:23;;;;;;;11.68;4.43;;;;;;;9.89;65.48;99580.84;5005327;28;20048;-64
2022/05/29 05:02:49;;;;;;;12.02;4.75;;;;;;;9.95;64.93;99584.09;5005182;28;20830;-64
2022/05/29 05:05:15;;;;;;;8.30;3.35;;;;;;;10.00;65.17;99585.56;5004889;28;20133;-65
2022/05/29 05:07:41;;;;;;;9.57;3.20;;;;;;;10.09;64.98;99581.59;5004416;28;20042;-65
2022/05/29 05:10:11;;;;;;;8.45;3.22;;;;;;;10.09;64.64;99579.84;5005060;28;20508;-66
2022/05/29 05:12:39;;;;;;;9.93;3.70;;;;;;;10.06;65.12;99572.06;5004747;28;20041;-64
2022/05/29 05:15:05;;;;;;;11.00;3.92;;;;;;;10.11;65.31;99571.84;5004977;28;20046;-64
2022/05/29 05:17:31;;;;;;;14.27;4.82;;;;;;;10.09;65.07;99577.22;5003312;28;20049;-64
2022/05/29 05:19:56;;;;;;;11.93;3.78;;;;;;;10.11;65.01;99574.47;5004684;28;20133;-65
2022/05/29 05:22:21;;;;;;;11.60;3.53;;;;;;;10.17;65.03;99565.44;5004483;28;20077;-64
2022/05/29 05:24:48;;;;;;;11.65;3.45;;;;;;;10.19;65.10;99574.09;5004819;28;20038;-64
2022/05/29 05:27:14;;;;;;;10.77;3.38;;;;;;;10.20;64.75;99573.16;5004137;28;20041;-66
2022/05/29 05:29:39;;;;;;;13.18;4.20;;;;;;;10.24;64.61;99567.66;5005241;28;20049;-66
2022/05/29 05:32:05;;;;;;;9.63;3.85;;;;;;;10.21;65.03;99573.06;5004868;28;20030;-66
2022/05/29 05:34:31;;;;;;;9.98;3.28;;;;;;;10.21;64.73;99566.97;5004736;28;20046;-66
2022/05/29 05:36:56;;;;;;;7.95;3.03;;;;;;;10.12;65.35;99570.09;5003863;28;20029;-66
2022/05/29 05:39:22;;;;;;;7.07;3.50;;;;;;;10.14;65.34;99565.56;5004759;28;20034;-65
2022/05/29 05:41:48;;;;;;;16.77;6.60;;;;;;;10.15;65.39;99567.28;5004487;28;20128;-67
2022/05/29 05:44:14;;;;;;;11.90;4.38;;;;;;;10.20;65.30;99562.63;5004612;28;20049;-66
2022/05/29 05:46:47;;;;;;;15.60;5.18;;;;;;;10.16;65.31;99561.06;5004444;28;20045;-66
2022/05/29 05:49:16;;;;;;;7.85;3.25;;;;;;;10.16;65.43;99564.56;5004641;28;20038;-66
2022/05/29 05:51:41;;;;;;;16.77;4.80;;;;;;;10.19;65.21;99572.31;5004683;28;20041;-66
2022/05/29 05:54:07;;;;;;;16.23;5.22;;;;;;;10.15;65.59;99565.50;5005900;28;20092;-67
2022/05/29 05:56:32;;;;;;;13.95;5.03;;;;;;;10.15;65.21;99567.28;5007626;28;20041;-67
2022/05/29 05:58:57;;;;;;;7.97;3.38;;;;;;;10.21;65.68;99566.97;5006417;28;20044;-66
2022/05/29 06:01:23;;;;;;;12.23;3.35;;;;;;;10.27;65.59;99571.94;5007660;28;20034;-65
2022/05/29 06:03:48;;;;;;;8.20;3.80;;;;;;;10.32;64.95;99567.31;5007503;28;20122;-65
2022/05/29 06:06:13;;;;;;;11.10;3.90;;;;;;;10.36;65.38;99568.84;5007668;28;20494;-65
2022/05/29 06:08:39;;;;;;;9.88;3.88;;;;;;;10.31;65.15;99570.84;5008057;28;20033;-65
2022/05/29 06:11:04;;;;;;;11.40;4.13;;;;;;;10.29;65.21;99575.38;5007974;28;20510;-66
2022/05/29 06:13:30;;;;;;;16.48;5.15;;;;;;;10.30;66.23;99574.44;5007719;28;20042;-66
2022/05/29 06:16:03;;;;;;;9.23;3.90;;;;;;;10.28;67.88;99573.66;5007428;28;20133;-66
2022/05/29 06:18:28;;;;;;;7.80;3.83;;;;;;;10.31;68.71;99574.38;5007975;28;20505;-65
2022/05/29 06:20:59;;;;;;;9.40;4.32;;;;;;;10.39;68.74;99568.69;5006035;28;20058;-66
2022/05/29 06:23:24;;;;;;;14.55;4.55;;;;;;;10.44;68.52;99565.81;5005252;28;20072;-66
2022/05/29 06:25:50;;;;;;;12.82;4.22;;;;;;;10.52;68.28;99566.25;5007086;28;20061;-66
2022/05/29 06:28:15;;;;;;;18.77;4.78;;;;;;;10.55;67.88;99571.38;5005878;28;20048;-67
2022/05/29 06:30:40;;;;;;;18.40;4.28;;;;;;;10.59;68.02;99567.66;4995089;28;20133;-66
2022/05/29 06:33:06;;;;;;;17.52;4.55;;;;;;;10.66;67.84;99571.66;5006990;28;20045;-66
2022/05/29 06:35:31;;;;;;;14.65;3.92;;;;;;;10.74;68.09;99565.97;5006823;28;20638;-66
2022/05/29 06:37:56;;;;;;;15.35;4.32;;;;;;;10.79;67.36;99565.72;5006657;28;20571;-65
2022/05/29 06:40:22;;;;;;;10.98;4.78;;;;;;;10.85;66.85;99558.31;5008941;28;20501;-65
2022/05/29 06:42:47;;;;;;;12.07;4.57;;;;;;;10.91;66.68;99560.66;5008002;28;20096;-66
2022/05/29 06:45:14;;;;;;;11.95;4.05;;;;;;;10.99;66.00;99564.66;5007019;28;20164;-65
2022/05/29 06:47:40;;;;;;;14.48;6.07;;;;;;;11.05;66.10;99561.66;5006546;28;20125;-66
2022/05/29 06:50:07;;;;;;;11.02;4.97;;;;;;;11.11;65.00;99563.97;5007084;28;20038;-66
2022/05/29 06:52:33;;;;;;;12.93;4.03;;;;;;;11.11;64.41;99559.56;5007157;28;20088;-65
2022/05/29 06:55:00;;;;;;;13.75;4.03;;;;;;;11.13;64.22;99562.13;5006920;28;20041;-65
2022/05/29 06:57:39;;;;;;;11.43;4.18;;;;;;;11.10;63.93;99557.88;5006027;28;20052;-64
2022/05/29 07:08:32;;;;;;;12.68;5.85;;;;;;;10.98;66.48;99578.75;4987163;28;20054;-66
2022/05/29 07:11:02;;;;;;;12.18;5.25;;;;;;;10.90;67.30;99582.69;4987211;28;20045;-65
2022/05/29 07:13:29;;;;;;;7.65;4.88;;;;;;;10.85;68.85;99576.78;4987236;28;20046;-66
2022/05/29 07:15:55;;;;;;;8.45;4.75;;;;;;;10.83;69.28;99575.16;4986260;28;20038;-65
2022/05/29 07:18:20;;;;;;;15.15;5.63;;;;;;;10.77;69.41;99575.50;4986707;28;20041;-64
2022/05/29 07:20:45;;;;;;;14.25;6.30;;;;;;;10.70;69.55;99580.25;4987261;28;20104;-66
2022/05/29 07:23:11;;;;;;;12.73;5.13;;;;;;;10.69;70.48;99575.91;4987016;28;20509;-66
2022/05/29 07:25:36;;;;;;;10.05;4.50;;;;;;;10.68;70.64;99580.34;4987083;28;20034;-65
2022/05/29 07:28:02;;;;;;;11.40;4.22;;;;;;;10.69;70.01;99575.91;4986022;28;20026;-65
2022/05/29 07:30:28;;;;;;;12.95;5.03;;;;;;;10.64;69.29;99575.31;4986795;28;20042;-66
2022/05/29 07:32:53;;;;;;;8.98;4.90;;;;;;;10.62;69.33;99570.09;4986696;28;20041;-65
2022/05/29 07:35:19;;;;;;;10.50;4.63;;;;;;;10.63;70.20;99578.88;4986919;28;20046;-66
2022/05/29 07:37:44;;;;;;;8.85;4.22;;;;;;;10.67;69.95;99575.16;4986278;28;20092;-64
2022/05/29 07:40:11;;;;;;;9.23;4.47;;;;;;;10.64;69.38;99577.94;4986546;28;20847;-63
2022/05/29 07:45:20;;;;;;;13.60;6.55;;;;;;;10.57;70.29;99581.84;4986376;28;20677;-66
2022/05/29 07:47:46;;;;;;;9.35;4.78;;;;;;;10.59;69.53;99579.97;4986276;28;20117;-66
2022/05/29 07:50:20;;;;;;;11.45;5.72;;;;;;;10.62;70.08;99577.16;4986362;28;20394;-67
2022/05/29 07:52:46;;;;;;;6.72;4.18;;;;;;;10.68;69.71;99577.72;4986403;28;20414;-65
2022/05/29 07:55:13;;;;;;;17.23;6.53;;;;;;;10.68;69.37;99574.19;4986203;28;20038;-66
2022/05/29 07:57:38;;;;;;;15.88;4.95;;;;;;;10.74;69.03;99576.53;4985178;28;20054;-65
2022/05/29 08:00:06;;;;;;;10.73;5.80;;;;;;;10.68;68.35;99574.19;4986048;28;20043;-62
2022/05/29 08:02:34;;;;;;;8.68;4.68;;;;;;;10.74;69.65;99574.72;4984268;28;20613;-64
2022/05/29 08:05:03;;;;;;;9.52;4.90;;;;;;;10.81;70.50;99567.34;4985867;28;20045;-65
2022/05/29 08:07:29;;;;;;;10.63;4.65;;;;;;;10.73;68.76;99573.03;4985222;28;20414;-65
2022/05/29 08:09:55;;;;;;;9.02;4.65;;;;;;;10.62;68.40;99564.84;4985979;28;20034;-65
2022/05/29 08:12:21;;;;;;;9.10;5.18;;;;;;;10.69;69.71;99571.50;4986013;28;20048;-66
2022/05/29 08:14:47;;;;;;;10.63;4.97;;;;;;;10.76;70.15;99572.03;4985864;28;20084;-65
2022/05/29 08:17:12;;;;;;;8.18;4.53;;;;;;;10.84;69.41;99574.25;4985009;28;20058;-66
2022/05/29 08:19:38;;;;;;;9.90;4.35;;;;;;;10.90;69.06;99574.78;4986062;28;20133;-66
2022/05/29 08:22:04;;;;;;;9.18;3.88;;;;;;;11.01;68.99;99570.69;4986360;28;20421;-66
2022/05/29 08:32:55;;;;;;;6.17;4.60;;;;;;;11.22;67.23;99564.22;4985447;28;20557;-67
2022/05/29 08:35:20;;;;;;;8.25;5.05;;;;;;;11.36;66.72;99560.81;4988831;28;20292;-65
2022/05/29 08:37:46;;;;;;;6.95;4.35;;;;;;;11.45;65.55;99555.03;5005179;28;20065;-66
2022/05/29 08:40:12;;;;;;;7.57;4.85;;;;;;;11.44;64.69;99566.53;5005295;28;20418;-66
2022/05/29 08:42:41;;;;;;;18.67;5.40;;;;;;;11.45;64.84;99564.75;5005022;28;20048;-65
2022/05/29 08:45:08;;;;;;;9.07;4.38;;;;;;;11.39;67.04;99555.38;5005385;28;20494;-66
2022/05/29 08:47:33;;;;;;;9.02;5.10;;;;;;;11.48;67.22;99560.13;5002599;28;20045;-56
2022/05/29 08:49:59;;;;;;;7.32;4.30;;;;;;;11.63;66.01;99555.78;5003296;28;20505;-56
2022/05/29 08:52:39;;;;;;;6.85;4.25;;;;;;;11.75;64.96;99557.72;5004232;28;20048;-57
2022/05/29 08:55:18;;;;;;;9.88;4.97;;;;;;;11.67;65.63;99552.03;5003863;28;20042;-57
2022/05/29 08:57:56;;;;;;;7.75;4.43;;;;;;;11.71;66.00;99552.69;5004699;28;20041;-56
2022/05/29 09:00:38;;;;;;;8.00;4.25;;;;;;;12.10;64.97;99551.34;5005285;28;20053;-52
2022/05/29 09:03:48;;;;;;;11.45;4.38;;;;;;;12.39;63.01;99550.44;5004206;28;20030;-56
2022/05/29 09:06:21;;;;;;;7.78;4.38;;;;;;;12.44;62.51;99551.00;5002171;28;20038;-55
2022/05/29 09:08:49;;;;;;;7.22;4.22;;;;;;;12.64;61.39;99539.22;5005262;28;20045;-54
2022/05/29 09:11:20;;;;;;;5.65;3.47;;;;;;;13.03;60.84;99537.66;5005307;28;20033;-56
2022/05/29 09:13:53;;;;;;;5.00;3.60;;;;;;;13.65;58.13;99536.38;5005228;28;20161;-55
2022/05/29 09:16:23;;;;;;;6.03;3.67;;;;;;;14.95;54.26;99530.13;5006752;28;20551;-53
2022/05/29 09:19:08;;;;;;;5.28;3.50;;;;;;;15.45;52.64;99519.44;5006196;28;20041;-51
2022/05/29 09:21:48;;;;;;;9.50;5.55;;;;;;;15.08;52.20;99518.63;5004924;28;20080;-52
2022/05/29 09:24:26;;;;;;;5.78;4.05;;;;;;;14.65;53.16;99521.69;5005164;28;20094;-51
2022/05/29 09:26:52;;;;;;;7.10;3.17;;;;;;;14.84;52.40;99515.91;5004642;28;20048;-54
2022/05/29 09:29:18;;;;;;;8.05;2.65;;;;;;;14.68;52.74;99517.00;5007150;28;20037;-55
2022/05/29 09:31:43;;;;;;;4.53;2.42;;;;;;;14.48;52.59;99517.53;5008691;28;20034;-56
2022/05/29 09:34:08;;;;;;;4.30;2.83;;;;;;;14.14;53.71;99514.53;5009241;28;20064;-59
2022/05/29 09:37:12;;;;;;;8.55;2.95;;;;;;;14.04;54.68;99521.44;5007374;28;20049;-65
2022/05/29 09:39:43;;;;;;;9.70;3.13;;;;;;;13.92;54.82;99516.00;5009761;28;20067;-66
2022/05/29 09:42:29;;;;;;;4.82;2.78;;;;;;;13.79;55.15;99519.59;5010027;28;20042;-63
2022/05/29 09:45:22;;;;;;;;;;;;;;;13.70;55.40;99521.88;5010485;28;20042;-65
2022/05/29 09:50:59;;;;;;;6.53;2.40;;;;;;;13.48;56.71;99516.31;5008295;28;20056;-65
2022/05/29 09:53:28;;;;;;;3.03;2.10;;;;;;;13.44;57.54;99514.81;5006383;28;20050;-65
2022/05/29 09:56:03;;;;;;;6.88;2.63;;;;;;;13.43;56.99;99516.59;5007955;28;20045;-65
2022/05/29 09:58:47;;;;;;;6.47;2.67;;;;;;;13.41;57.25;99515.84;5008257;28;20132;-63
2022/05/29 10:01:30;;;;;;;6.78;3.10;;;;;;;13.43;56.63;99508.66;5006361;28;20041;-65
2022/05/29 10:03:58;;;;;;;11.65;3.78;;;;;;;13.55;56.62;99501.72;5009958;28;20428;-61
2022/05/29 10:06:26;;;;;;;5.35;2.80;;;;;;;13.64;56.45;99510.84;5008351;28;20052;-63
2022/05/29 10:09:01;;;;;;;4.88;2.65;;;;;;;13.77;55.87;99506.44;5009176;28;20068;-64
2022/05/29 10:11:32;;;;;;;4.68;2.58;;;;;;;13.93;56.09;99504.47;5008795;28;20052;-66
2022/05/29 10:14:00;;;;;;;5.15;2.55;;;;;;;14.21;54.99;99502.56;5006592;28;20050;-64
2022/05/29 10:16:38;;;;;;;5.60;3.35;;;;;;;14.38;53.63;99499.59;5009512;28;20060;-65
2022/05/29 10:19:09;;;;;;;6.18;2.25;;;;;;;14.46;51.69;99500.88;5008541;28;20125;-64
2022/05/29 10:21:42;;;;;;;8.55;3.33;;;;;;;14.47;52.36;99500.78;5008031;28;20045;-66
2022/05/29 10:24:36;;;;;;;7.45;2.63;;;;;;;14.69;50.98;99493.97;5007519;28;20497;-65
2022/05/29 10:27:03;;;;;;;4.05;2.85;;;;;;;14.62;51.45;99488.25;5006330;28;20042;-65
2022/05/29 10:29:33;;;;;;;12.48;3.83;;;;;;;14.82;50.28;99492.16;5007617;28;20045;-65
2022/05/29 10:32:01;;;;;;;5.32;2.97;;;;;;;14.89;49.83;99487.22;5007686;28;20121;-64
2022/05/29 10:34:36;;;;;;;3.75;2.53;;;;;;;15.18;48.81;99483.31;5007675;28;20065;-63
2022/05/29 10:37:22;;;;;;;;;;;;;;;15.25;47.94;99484.56;5007243;28;20045;-63
2022/05/29 10:39:47;;;;;;;8.02;3.13;;;;;;;15.14;48.07;99488.97;5006529;28;19921;-64
2022/05/29 10:42:36;;;;;;;7.22;2.78;;;;;;;14.75;48.92;99480.28;5006873;28;20050;-66
2022/05/29 10:45:02;;;;;;;4.25;2.53;;;;;;;14.66;50.24;99484.41;5007389;28;20564;-65
2022/05/29 10:47:41;;;;;;;7.10;2.40;;;;;;;14.49;50.75;99476.78;5006004;28;20129;-64
2022/05/29 10:50:23;;;;;;;8.38;3.25;;;;;;;14.36;52.00;99482.09;5007618;28;20030;-64
2022/05/29 10:52:56;;;;;;;7.15;2.40;;;;;;;14.27;52.47;99480.06;5007293;28;20037;-64
2022/05/29 10:55:39;;;;;;;6.18;2.47;;;;;;;14.20;53.32;99482.31;5007217;28;20555;-65
2022/05/29 10:58:38;;;;;;;6.55;2.55;;;;;;;14.20;52.81;99476.16;5006756;28;20045;-65
2022/05/29 11:04:12;;;;;;;4.47;2.55;;;;;;;14.47;52.12;99465.41;5007668;28;20044;-65
2022/05/29 11:06:58;;;;;;;7.65;2.47;;;;;;;14.65;51.23;99476.59;5009019;28;20062;-64
2022/05/29 11:09:39;;;;;;;;;;;;;;;14.70;49.73;99469.13;5008248;28;20041;-64
2022/05/29 11:12:16;;;;;;;4.43;2.50;;;;;;;14.80;50.07;99465.72;5007996;28;19927;-65
2022/05/29 11:14:52;;;;;;;6.45;2.60;;;;;;;14.90;49.58;99465.06;5006305;28;20053;-65
2022/05/29 11:17:20;;;;;;;5.03;2.42;;;;;;;14.78;49.65;99458.81;5006350;28;20046;-64
2022/05/29 11:20:23;;;;;;;3.97;2.42;;;;;;;14.79;48.88;99457.84;5006739;28;20044;-64
2022/05/29 11:23:16;;;;;;;5.70;2.65;;;;;;;14.70;49.43;99453.22;5006428;28;20505;-67
2022/05/29 11:26:04;;;;;;;6.20;2.65;;;;;;;14.78;48.39;99446.38;5006155;28;20034;-65
2022/05/29 11:28:55;;;;;;;4.15;2.00;;;;;;;14.67;47.74;99448.97;5006666;28;20045;-65
2022/05/29 11:31:46;;;;;;;3.28;1.83;;;;;;;14.66;48.66;99446.44;5006610;28;20065;-67
2022/05/29 11:34:43;;;;;;;3.67;1.73;;;;;;;14.53;49.49;99443.78;5006327;28;20046;-65
2022/05/29 11:37:14;;;;;;;;;;;;;;;14.48;49.70;99443.25;5006143;28;20037;-66
2022/05/29 11:39:42;;;;;;;6.93;2.70;;;;;;;14.26;50.58;99443.91;5005969;28;19917;-65
2022/05/29 11:42:17;;;;;;;4.50;1.60;;;;;;;14.22;51.53;99442.44;5004322;28;20473;-65
2022/05/29 11:45:13;;;;;;;5.13;2.22;;;;;;;14.31;50.71;99434.69;5006312;28;20124;-65
2022/05/29 11:53:32;;;;;;;4.22;2.78;;;;;;;14.89;50.12;99421.75;5004729;28;20126;-64
2022/05/29 11:56:03;;;;;;;7.65;2.25;;;;;;;14.79;50.32;99418.03;5005770;28;20034;-64
2022/05/29 11:58:38;;;;;;;4.15;2.13;;;;;;;14.94;50.07;99414.28;5005948;28;20180;-66
2022/05/29 12:01:23;;;;;;;7.05;2.42;;;;;;;15.08;49.84;99413.25;5006166;28;20041;-65
2022/05/29 12:03:55;;;;;;;5.22;2.53;;;;;;;15.41;48.26;99404.59;5005742;28;20038;-66
2022/05/29 12:06:34;;;;;;;9.80;2.40;;;;;;;15.53;47.77;99401.94;5005319;28;20037;-65
2022/05/29 12:09:17;;;;;;;4.70;2.10;;;;;;;15.51;46.85;99398.59;5006100;28;20771;-64
2022/05/29 12:11:46;;;;;;;4.32;2.40;;;;;;;15.79;46.87;99395.53;5005962;28;20058;-64
2022/05/29 12:14:23;;;;;;;3.08;1.48;;;;;;;15.92;45.85;99398.06;5006039;28;20038;-63
2022/05/29 12:16:53;;;;;;;2.72;1.92;;;;;;;16.05;45.71;99404.16;5005318;28;20096;-66
2022/05/29 12:19:28;;;;;;;4.95;2.22;;;;;;;15.81;46.64;99392.75;5005370;28;20042;-64
2022/05/29 12:22:02;;;;;;;6.97;1.80;;;;;;;15.70;46.19;99390.06;5005480;28;20051;-68
2022/05/29 12:24:31;;;;;;;6.82;2.03;;;;;;;15.81;45.68;99393.59;5005390;28;20687;-64
2022/05/29 12:27:09;;;;;;;4.22;1.90;;;;;;;16.10;45.20;99379.88;5004538;28;20045;-66
2022/05/29 12:29:41;;;;;;;3.65;1.77;;;;;;;16.12;43.52;99377.94;5005266;28;20056;-65
2022/05/29 12:32:17;;;;;;;3.20;1.60;;;;;;;16.24;43.29;99369.00;5004784;28;20105;-65